Terminal Aerodrome Forecast
Issued by NWS

Home | Current Version | Previous Version | Text Only | Print | Product List | Glossary On
Versions: 1 2 3 4 5 6 7 8 9 10 11 12 13 14 15
185
FTUS43 KFGF 291447 AAA
TAFTVF
TAF AMD
KTVF 291447Z 2915/3012 16008KT P6SM BKN020
     FM291800 32010KT P6SM SCT025
     FM300200 33004KT P6SM SKC=

USA.gov is the U.S. government's official web portal to all federal, state and local government web resources and services.